Impacts METAR Board
IDs:

KLAX - Los Angeles Intl, CA, US

Updated at: 0100 UTC 25 May 2018
Potential Impact None Slight Moderate High
Time 24/13Z 24/14Z 24/15Z 24/16Z 24/17Z 24/18Z 24/19Z 24/20Z 24/21Z 24/22Z 24/23Z 25/00Z 25/01Z
Temp60 59 59 61 61 60 62 63 65 63 62 63 63
Dewpt54 55 55 55 55 55 55 54 53 53 53 53 55
Altim30.03 30.07 30.08 30.09 30.09 30.10 30.09 30.10 30.08 30.09 30.08 30.06 30.06
VIS8 5 5 7 9 9 9 10 10 10 10 10 10
CIG12 13 15 10 17 20 16 16 25 31 34 38 39
CoverOVCOVCOVCOVCOVCOVCOVCOVCOVCOVCOVCOVCBKN
FltCatMVFRMVFRMVFRMVFRMVFRMVFRMVFRMVFRMVFRVFRVFRVFRVFR
WX---DZ BRBR--------------------
WDir250270002502600260250250270240270
WSpd5 4 0 0 6 7 4 11 9 12 10 9 12
WGst-- -- -- -- -- -- -- -- 15 -- -- -- --
Raw hourly METARs
KLAX 241253Z 25005KT 8SM BKN012 OVC020 16/12 A3003 RMK AO2 SLP168 T01560122
KLAX 241353Z 27004KT 5SM -DZ BR BKN013 OVC021 15/13 A3007 RMK AO2 RAB39E40DZB40 SLP180 VIS N 3 P0000 T01500128
KLAX 241453Z 00000KT 5SM BR SCT011 BKN015 OVC025 15/13 A3008 RMK AO2 DZE21 SLP185 P0000 60000 T01500128 51019
KLAX 241553Z 00000KT 7SM BKN010 OVC031 16/13 A3009 RMK AO2 SLP186 T01610128
KLAX 241653Z 25006KT 9SM FEW010 BKN017 OVC033 16/13 A3009 RMK AO2 SLP188 T01610128
KLAX 241753Z 26007KT 9SM SCT014 BKN020 OVC030 16/13 A3010 RMK AO2 SLP191 60000 T01560128 10167 20150 51006
KLAX 241853Z VRB04KT 9SM SCT010 BKN016 OVC035 17/13 A3009 RMK AO2 SLP189 T01670128
KLAX 241953Z 26011KT 10SM FEW010 BKN016 OVC035 17/12 A3010 RMK AO2 SLP191 T01720122
KLAX 242053Z 25009G15KT 10SM BKN025 OVC037 18/12 A3008 RMK AO2 SLP186 T01830117 58004
KLAX 242153Z 25012KT 10SM OVC031 17/12 A3009 RMK AO2 SLP189 T01720117
KLAX 242253Z 27010KT 10SM OVC034 17/12 A3008 RMK AO2 SLP186 T01670117
KLAX 242353Z 24009KT 10SM OVC038 17/12 A3006 RMK AO2 SLP179 T01720117 10189 20156 58007
KLAX 250053Z 27012KT 10SM BKN039 17/13 A3006 RMK AO2 SLP177 T01720128



Page loaded:  01:32 UTC  |   06:32 PM Pacific  |   07:32 PM Mountain  |   08:32 PM Central  |   09:32 PM Eastern

 

ADVISORIES

FORECASTS

FORECASTS

OBSERVATIONS

USER TOOLS

ABOUT US